Time;durP1;ratioP1;P1;durP2;ratioP2;P2;SDS_P1;SDS_P2;PMS_P1;PMS_P2;Temp;Humidity;BMP_temperature;BMP_pressure;BME280_temperature;BME280_humidity;BME280_pressure;Samples;Min_cycle;Max_cycle;Signal;HPM_P1;HPM_P2
2022/08/09 00:02:39;;;;;;;5.18;2.40;;;;;;;24.04;31.72;100478.72;5039777;28;20582;-87
2022/08/09 00:05:20;;;;;;;7.38;2.58;;;;;;;24.05;31.45;100479.53;5018708;28;20151;-87
2022/08/09 00:08:09;;;;;;;4.47;2.08;;;;;;;24.05;31.70;100474.13;4975867;28;20124;-87
2022/08/09 00:10:40;;;;;;;5.60;2.47;;;;;;;23.92;31.58;100476.84;4994983;28;20501;-82
2022/08/09 00:13:09;;;;;;;5.38;2.40;;;;;;;24.01;31.67;100476.38;5014116;28;20045;-82
2022/08/09 00:15:46;;;;;;;3.85;2.13;;;;;;;23.88;31.67;100478.28;4996320;28;20056;-82
2022/08/09 00:18:32;;;;;;;5.93;2.50;;;;;;;24.00;31.53;100482.03;4991360;28;20045;-83
2022/08/09 00:21:03;;;;;;;5.70;2.22;;;;;;;23.97;31.48;100477.88;5022341;28;20442;-84
2022/08/09 00:23:31;;;;;;;5.03;2.30;;;;;;;24.02;31.45;100477.25;4974508;28;20042;-83
2022/08/09 00:26:17;;;;;;;4.50;2.40;;;;;;;23.95;31.52;100470.97;4946853;28;20061;-83
2022/08/09 00:28:55;;;;;;;4.90;2.80;;;;;;;24.00;31.53;100474.72;5037631;28;20536;-83
2022/08/09 00:31:24;;;;;;;4.10;2.33;;;;;;;24.01;31.61;100472.84;5020606;28;20136;-82
2022/08/09 00:34:11;;;;;;;5.28;2.30;;;;;;;23.97;32.15;100469.72;4989855;28;20057;-82
2022/08/09 00:36:38;;;;;;;2.72;2.40;;;;;;;23.97;32.17;100477.03;4989277;28;20551;-82
2022/08/09 00:39:08;;;;;;;3.28;2.35;;;;;;;23.88;32.50;100468.25;4993054;28;20064;-82
2022/08/09 00:41:55;;;;;;;4.93;2.60;;;;;;;23.90;32.61;100471.59;5003136;28;20124;-87
2022/08/09 00:44:42;;;;;;;3.58;2.50;;;;;;;23.82;32.59;100469.09;4992643;28;20056;-86
2022/08/09 00:47:13;;;;;;;4.95;2.40;;;;;;;23.83;32.50;100466.16;4992897;28;20125;-82
2022/08/09 00:49:41;;;;;;;5.05;2.47;;;;;;;23.84;32.11;100472.44;5037565;28;20045;-82
2022/08/09 00:52:18;;;;;;;3.63;2.15;;;;;;;23.91;32.02;100467.00;4959598;28;20045;-82
2022/08/09 00:54:47;;;;;;;4.30;2.78;;;;;;;23.78;32.07;100467.81;5022236;28;20100;-82
2022/08/09 00:57:14;;;;;;;4.20;2.35;;;;;;;23.90;31.78;100470.78;4974007;28;20037;-82
2022/08/09 00:59:59;;;;;;;3.08;2.35;;;;;;;23.92;31.91;100466.81;4971154;28;20085;-81
2022/08/09 01:02:31;;;;;;;3.63;2.20;;;;;;;23.90;31.95;100468.88;5002478;28;20034;-82
2022/08/09 01:05:07;;;;;;;3.50;2.85;;;;;;;23.92;31.76;100463.28;5006609;28;20413;-83
2022/08/09 01:08:12;;;;;;;4.95;2.38;;;;;;;23.69;32.17;100471.75;5019194;28;20174;-83
2022/08/09 01:10:50;;;;;;;6.45;2.50;;;;;;;23.79;32.27;100472.22;4920186;28;20045;-83
2022/08/09 01:13:45;;;;;;;3.25;2.35;;;;;;;23.78;31.64;100468.66;5026086;28;20053;-83
2022/08/09 01:16:31;;;;;;;5.82;2.58;;;;;;;23.74;31.76;100470.13;4940981;28;20042;-82
2022/08/09 01:19:01;;;;;;;3.03;2.63;;;;;;;23.80;31.82;100469.28;5028681;28;20072;-82
2022/08/09 01:21:30;;;;;;;4.95;2.40;;;;;;;23.56;32.10;100475.25;4992819;28;20124;-83
2022/08/09 01:24:21;;;;;;;5.10;2.63;;;;;;;23.65;31.95;100470.50;5011387;28;21184;-83
2022/08/09 01:27:09;;;;;;;3.05;2.17;;;;;;;23.62;32.21;100475.28;4954793;28;20042;-87
2022/08/09 01:29:42;;;;;;;3.80;2.30;;;;;;;23.79;31.73;100480.38;4988524;28;20042;-87
2022/08/09 01:32:26;;;;;;;4.75;2.55;;;;;;;23.86;31.65;100472.22;4988508;28;20634;-82
2022/08/09 01:35:02;;;;;;;6.72;2.28;;;;;;;23.71;32.85;100472.38;4977884;28;20138;-82
2022/08/09 01:37:55;;;;;;;2.95;2.08;;;;;;;23.59;33.29;100470.28;4986351;28;20081;-88
2022/08/09 01:40:41;;;;;;;4.13;2.53;;;;;;;23.50;33.44;100476.09;4954747;28;20412;-86
2022/08/09 01:43:08;;;;;;;4.80;2.17;;;;;;;23.53;33.69;100481.09;5054255;28;20099;-87
2022/08/09 01:45:35;;;;;;;5.75;2.78;;;;;;;23.45;33.98;100479.41;5051885;28;20404;-88
2022/08/09 01:48:17;;;;;;;5.18;2.60;;;;;;;23.37;34.44;100474.19;4984435;28;20498;-88
2022/08/09 01:50:48;;;;;;;2.42;2.20;;;;;;;23.32;34.54;100469.38;5016798;28;20088;-88
2022/08/09 01:53:24;;;;;;;6.18;2.35;;;;;;;23.31;34.85;100472.28;4975051;28;20069;-88
2022/08/09 01:56:01;;;;;;;4.30;2.70;;;;;;;23.31;34.30;100470.41;4985782;28;20049;-87
2022/08/09 01:58:31;;;;;;;4.70;2.38;;;;;;;23.27;34.32;100484.56;5045853;28;20053;-87
2022/08/09 02:00:58;;;;;;;3.30;2.47;;;;;;;23.26;34.67;100477.50;5027518;28;20053;-88
2022/08/09 02:03:28;;;;;;;4.60;2.33;;;;;;;23.21;34.31;100474.56;5039692;28;20072;-87
2022/08/09 02:05:56;;;;;;;3.13;2.45;;;;;;;23.28;34.07;100486.22;5035685;28;20451;-88
2022/08/09 02:08:35;;;;;;;7.97;3.30;;;;;;;23.22;33.83;100489.75;5016407;28;20549;-87
2022/08/09 02:11:22;;;;;;;5.05;2.75;;;;;;;23.31;33.37;100486.69;4970012;28;20072;-87
2022/08/09 02:13:49;;;;;;;4.72;2.22;;;;;;;23.38;33.07;100486.69;4999604;28;20041;-88
2022/08/09 02:16:35;;;;;;;3.28;2.85;;;;;;;23.30;33.48;100489.56;4954888;28;20042;-87
2022/08/09 02:19:22;;;;;;;4.72;2.22;;;;;;;23.35;33.13;100490.63;4956463;28;20083;-87
2022/08/09 02:21:51;;;;;;;6.40;2.70;;;;;;;23.24;33.53;100491.22;4984691;28;20042;-87
2022/08/09 02:24:29;;;;;;;3.42;2.42;;;;;;;23.15;33.71;100495.13;5005043;28;20080;-83
2022/08/09 02:26:56;;;;;;;4.88;2.80;;;;;;;23.15;34.38;100498.72;4993408;28;20041;-87
2022/08/09 02:29:26;;;;;;;7.50;2.50;;;;;;;23.19;33.41;100505.38;5015802;28;20050;-87
2022/08/09 02:31:58;;;;;;;4.45;2.67;;;;;;;23.22;33.70;100500.59;5005011;28;20488;-88
2022/08/09 02:34:29;;;;;;;4.63;2.75;;;;;;;23.17;33.85;100501.19;5032890;28;20504;-87
2022/08/09 02:37:21;;;;;;;5.00;2.42;;;;;;;22.98;35.32;100500.09;4958380;28;20050;-88
2022/08/09 02:40:06;;;;;;;5.20;2.50;;;;;;;22.80;36.47;100499.75;5002103;28;20440;-87
2022/08/09 02:42:37;;;;;;;5.25;2.70;;;;;;;22.78;35.92;100496.41;4967799;28;20041;-86
2022/08/09 02:45:12;;;;;;;3.80;2.58;;;;;;;22.64;36.26;100495.47;5002805;28;20632;-86
2022/08/09 02:47:42;;;;;;;8.25;3.33;;;;;;;22.69;36.37;100501.13;4984195;28;20088;-86
2022/08/09 02:50:28;;;;;;;6.63;2.80;;;;;;;22.73;36.10;100497.81;4969239;28;20132;-87
2022/08/09 02:53:07;;;;;;;3.85;2.60;;;;;;;22.56;36.48;100493.75;5003822;28;20054;-86
2022/08/09 02:55:35;;;;;;;5.03;2.85;;;;;;;22.65;36.51;100498.00;4967151;28;20049;-83
2022/08/09 02:58:25;;;;;;;8.23;3.10;;;;;;;22.53;36.62;100488.75;4996909;28;20057;-83
2022/08/09 03:01:04;;;;;;;10.60;2.95;;;;;;;22.63;36.00;100496.50;4962921;28;20052;-82
2022/08/09 03:03:33;;;;;;;6.15;2.40;;;;;;;22.59;36.11;100495.22;4969492;28;20124;-83
2022/08/09 03:06:21;;;;;;;4.18;2.50;;;;;;;22.56;36.21;100490.22;4957684;28;20048;-83
2022/08/09 03:08:51;;;;;;;5.60;2.83;;;;;;;22.58;34.60;100485.44;5018584;28;20056;-83
2022/08/09 03:11:20;;;;;;;7.30;2.92;;;;;;;22.49;37.29;100487.44;5016269;28;20170;-83
2022/08/09 03:14:07;;;;;;;5.97;2.53;;;;;;;22.54;36.31;100493.09;4978014;28;20044;-82
2022/08/09 03:16:36;;;;;;;5.10;2.70;;;;;;;22.58;34.94;100486.28;5029571;28;20402;-83
2022/08/09 03:19:11;;;;;;;6.88;2.47;;;;;;;22.61;34.82;100485.03;4994888;28;20050;-83
2022/08/09 03:21:58;;;;;;;4.18;2.85;;;;;;;22.64;34.46;100490.88;4940848;28;20092;-82
2022/08/09 03:24:29;;;;;;;4.13;2.50;;;;;;;22.70;34.49;100500.94;5000295;28;20057;-83
2022/08/09 03:27:16;;;;;;;5.57;2.65;;;;;;;22.65;34.51;100494.44;5011918;28;20045;-83
2022/08/09 03:29:51;;;;;;;4.90;3.10;;;;;;;22.67;34.27;100489.66;5018536;28;20052;-84
2022/08/09 03:32:29;;;;;;;4.13;2.55;;;;;;;22.69;34.43;100498.41;4970715;28;20095;-83
2022/08/09 03:34:58;;;;;;;6.28;2.80;;;;;;;22.68;34.39;100492.16;4989379;28;20042;-88
2022/08/09 03:37:26;;;;;;;4.20;2.88;;;;;;;22.57;34.16;100489.16;5003268;28;20056;-87
2022/08/09 03:40:14;;;;;;;5.43;2.47;;;;;;;22.60;34.00;100494.22;4973420;28;20053;-87
2022/08/09 03:42:44;;;;;;;5.35;2.80;;;;;;;22.55;34.35;100492.09;5002555;28;20560;-87
2022/08/09 03:45:12;;;;;;;6.00;2.58;;;;;;;22.48;34.33;100502.88;5041232;28;20049;-84
2022/08/09 03:47:38;;;;;;;10.25;3.08;;;;;;;22.30;34.37;100506.06;5002057;28;20049;-84
2022/08/09 03:50:13;;;;;;;5.07;2.60;;;;;;;22.48;34.14;100499.31;4971216;28;20133;-84
2022/08/09 03:52:46;;;;;;;3.63;2.53;;;;;;;22.28;34.70;100504.59;5038370;28;20052;-84
2022/08/09 03:55:15;;;;;;;5.15;2.78;;;;;;;22.44;34.55;100493.47;5040045;28;20065;-84
2022/08/09 04:02:13;;;;;;;4.88;2.53;;;;;;;22.40;34.44;100504.91;4977938;28;20030;-83
2022/08/09 04:04:40;;;;;;;8.77;3.28;;;;;;;22.34;34.26;100509.22;5021991;28;20080;-82
2022/08/09 04:07:11;;;;;;;7.05;2.60;;;;;;;22.36;34.61;100511.72;4970264;28;20456;-82
2022/08/09 04:09:40;;;;;;;4.70;2.85;;;;;;;22.30;34.89;100510.63;5000128;28;20041;-82
2022/08/09 04:12:46;;;;;;;4.50;3.17;;;;;;;22.09;34.85;100516.88;4960964;28;20050;-85
2022/08/09 04:15:16;;;;;;;4.72;3.35;;;;;;;22.37;34.81;100513.41;4964414;28;20101;-82
2022/08/09 04:18:04;;;;;;;7.70;3.10;;;;;;;22.30;34.86;100522.28;5000998;28;22497;-83
2022/08/09 04:20:32;;;;;;;6.60;3.78;;;;;;;22.34;34.77;100525.47;4987020;28;20374;-83
2022/08/09 04:22:59;;;;;;;4.78;3.05;;;;;;;22.37;34.46;100522.34;4986710;28;20053;-83
2022/08/09 04:25:28;;;;;;;4.70;2.78;;;;;;;22.31;34.72;100529.41;4981099;28;20041;-84
2022/08/09 04:27:55;;;;;;;5.95;3.05;;;;;;;22.21;34.87;100526.19;4985918;28;20057;-84
2022/08/09 04:30:30;;;;;;;4.22;2.70;;;;;;;22.21;34.88;100541.56;4998341;28;20616;-83
2022/08/09 04:32:58;;;;;;;4.68;2.88;;;;;;;22.10;34.95;100534.78;4992573;28;20148;-84
2022/08/09 04:35:26;;;;;;;9.15;3.72;;;;;;;22.05;35.07;100545.34;4985203;28;20050;-84
2022/08/09 04:37:58;;;;;;;5.50;2.70;;;;;;;22.16;34.85;100549.38;5007262;28;20038;-83
2022/08/09 04:40:47;;;;;;;3.38;3.08;;;;;;;22.16;34.79;100554.81;4999023;28;20038;-84
2022/08/09 04:43:19;;;;;;;5.72;3.00;;;;;;;22.27;34.92;100552.44;4974782;28;20037;-83
2022/08/09 04:45:46;;;;;;;5.90;3.50;;;;;;;22.32;35.01;100563.53;4993984;28;20064;-82
2022/08/09 04:52:56;;;;;;;6.18;2.80;;;;;;;22.33;34.64;100567.88;5000889;28;20029;-84
2022/08/09 04:55:23;;;;;;;6.47;2.67;;;;;;;22.41;34.94;100572.31;5028391;28;20045;-89
2022/08/09 04:57:51;;;;;;;6.18;2.58;;;;;;;22.45;34.73;100567.38;5028806;28;20124;-86
2022/08/09 05:00:29;;;;;;;4.45;3.15;;;;;;;22.52;34.66;100571.81;4990870;28;20457;-82
2022/08/09 05:07:26;;;;;;;8.05;2.92;;;;;;;22.48;34.69;100584.06;5001472;28;20052;-85
2022/08/09 05:09:58;;;;;;;9.35;3.10;;;;;;;22.54;34.49;100585.13;5020730;28;20137;-83
2022/08/09 05:12:28;;;;;;;8.40;3.30;;;;;;;22.45;34.81;100580.91;4993704;28;20072;-83
2022/08/09 05:14:56;;;;;;;6.45;2.90;;;;;;;22.53;34.75;100578.88;5035734;28;20091;-83
2022/08/09 05:17:23;;;;;;;3.88;2.72;;;;;;;22.51;34.45;100572.81;5005531;28;20080;-83
2022/08/09 05:20:09;;;;;;;4.50;2.80;;;;;;;22.57;34.67;100586.63;4986676;28;20089;-85
2022/08/09 05:22:37;;;;;;;4.65;2.95;;;;;;;22.66;34.53;100586.28;5028973;28;20049;-85
2022/08/09 05:25:24;;;;;;;5.13;2.80;;;;;;;22.45;34.73;100589.88;4987076;28;20053;-86
2022/08/09 05:27:57;;;;;;;4.30;3.13;;;;;;;22.44;34.74;100580.09;5004198;28;20053;-83
2022/08/09 05:30:26;;;;;;;4.18;2.95;;;;;;;22.50;35.17;100592.81;5002283;28;20496;-84
2022/08/09 05:32:56;;;;;;;6.68;2.85;;;;;;;22.54;34.93;100598.66;5000002;28;20061;-84
2022/08/09 05:35:24;;;;;;;8.43;3.28;;;;;;;22.52;34.98;100601.59;4990352;28;20050;-84
2022/08/09 05:37:51;;;;;;;4.72;3.38;;;;;;;22.64;35.21;100606.47;4976607;28;20119;-84
2022/08/09 05:44:26;;;;;;;7.13;3.40;;;;;;;22.64;35.05;100611.88;4963473;28;20034;-87
2022/08/09 05:46:58;;;;;;;5.82;3.03;;;;;;;22.67;34.78;100612.34;5004047;28;20045;-86
2022/08/09 05:49:27;;;;;;;4.93;3.05;;;;;;;22.67;34.98;100623.16;5019984;28;20057;-87
2022/08/09 05:52:15;;;;;;;6.63;3.10;;;;;;;22.60;34.89;100614.16;5006009;28;20042;-88
2022/08/09 05:54:42;;;;;;;3.33;2.70;;;;;;;22.67;34.88;100617.75;5005924;28;20543;-84
2022/08/09 05:57:11;;;;;;;4.78;2.60;;;;;;;22.76;35.01;100621.97;5034629;28;20103;-87
2022/08/09 05:59:43;;;;;;;5.53;2.80;;;;;;;22.73;35.06;100625.06;5021402;28;20061;-87
2022/08/09 06:02:11;;;;;;;4.30;3.00;;;;;;;22.85;34.85;100628.09;5006149;28;20529;-87
2022/08/09 06:04:44;;;;;;;5.80;3.13;;;;;;;22.91;34.89;100626.47;5019688;28;20095;-87
2022/08/09 06:07:12;;;;;;;5.63;2.80;;;;;;;22.95;35.10;100620.47;5020217;28;20057;-86
2022/08/09 06:09:49;;;;;;;4.18;2.45;;;;;;;23.09;34.68;100624.13;5008092;28;20489;-87
2022/08/09 06:12:30;;;;;;;4.63;3.10;;;;;;;23.05;34.83;100627.41;4983581;28;20445;-84
2022/08/09 06:14:58;;;;;;;6.20;3.10;;;;;;;23.13;34.90;100627.28;5012222;28;20052;-86
2022/08/09 06:17:28;;;;;;;7.50;3.10;;;;;;;23.09;34.80;100634.94;5012539;28;20091;-83
2022/08/09 06:20:37;;;;;;;8.70;3.10;;;;;;;23.04;34.89;100626.59;4988622;28;20053;-83
2022/08/09 06:23:04;;;;;;;24.50;3.45;;;;;;;23.17;34.84;100634.78;4976706;28;20659;-86
2022/08/09 06:25:31;;;;;;;5.10;3.08;;;;;;;23.19;35.08;100632.72;5016602;28;21931;-86
2022/08/09 06:28:00;;;;;;;16.35;3.03;;;;;;;23.21;35.08;100634.41;4978385;28;20041;-84
2022/08/09 06:30:27;;;;;;;4.35;3.15;;;;;;;23.27;34.51;100634.44;5014459;28;20136;-84
2022/08/09 06:32:54;;;;;;;4.32;2.90;;;;;;;23.31;35.02;100643.03;5019813;28;20041;-84
2022/08/09 06:35:41;;;;;;;4.72;3.08;;;;;;;23.30;34.82;100638.63;4995019;28;20049;-84
2022/08/09 06:38:24;;;;;;;5.80;2.97;;;;;;;23.33;35.10;100638.22;5003022;28;20049;-83
2022/08/09 06:41:02;;;;;;;5.75;3.30;;;;;;;23.31;35.18;100645.72;4951264;28;21565;-85
2022/08/09 06:43:30;;;;;;;5.55;3.00;;;;;;;23.33;34.79;100643.63;5003891;28;20412;-86
2022/08/09 06:46:00;;;;;;;4.97;3.00;;;;;;;23.33;35.18;100643.63;5006296;28;20033;-85
2022/08/09 06:48:33;;;;;;;6.97;3.45;;;;;;;23.35;35.02;100639.69;5022627;28;20046;-86
2022/08/09 06:51:01;;;;;;;4.88;3.03;;;;;;;23.38;35.46;100636.59;5005848;28;20055;-86
2022/08/09 06:53:30;;;;;;;4.80;3.22;;;;;;;23.43;35.32;100640.56;4991210;28;20045;-85
2022/08/09 06:56:08;;;;;;;8.65;3.40;;;;;;;23.47;35.62;100644.56;5018455;28;20041;-85
2022/08/09 06:58:36;;;;;;;5.32;3.60;;;;;;;23.54;35.42;100634.59;4989208;28;20071;-85
2022/08/09 07:01:22;;;;;;;9.00;3.47;;;;;;;23.55;35.28;100641.69;4982913;28;20128;-85
2022/08/09 07:03:53;;;;;;;4.32;3.15;;;;;;;23.53;35.45;100646.47;4960746;28;20046;-85
2022/08/09 07:06:26;;;;;;;9.02;4.07;;;;;;;23.59;35.29;100641.06;5037046;28;20050;-86
2022/08/09 07:08:56;;;;;;;3.65;2.80;;;;;;;23.59;35.48;100638.38;5016069;28;20073;-85
2022/08/09 07:11:23;;;;;;;4.47;3.38;;;;;;;23.56;35.47;100638.78;4991775;28;20046;-84
2022/08/09 07:13:51;;;;;;;4.22;2.97;;;;;;;23.65;35.49;100635.88;5008085;28;20041;-84
2022/08/09 07:16:31;;;;;;;8.75;2.97;;;;;;;23.73;35.62;100643.88;4967689;28;20045;-86
2022/08/09 07:19:15;;;;;;;5.90;3.15;;;;;;;23.68;35.50;100658.00;4978128;28;20126;-85
2022/08/09 07:21:50;;;;;;;3.97;2.90;;;;;;;23.69;35.41;100638.00;5019907;28;20048;-86
2022/08/09 07:24:32;;;;;;;7.78;3.30;;;;;;;23.65;36.17;100650.28;4957290;28;20073;-86
2022/08/09 07:27:10;;;;;;;3.58;3.03;;;;;;;23.71;35.44;100649.47;4961535;28;20042;-86
2022/08/09 07:29:57;;;;;;;4.05;3.25;;;;;;;23.71;35.78;100649.47;4982606;28;20404;-87
2022/08/09 07:32:26;;;;;;;4.35;3.30;;;;;;;23.80;35.76;100650.16;4984999;28;20124;-86
2022/08/09 07:35:05;;;;;;;5.18;2.65;;;;;;;23.79;35.53;100643.91;5002779;28;20125;-85
2022/08/09 07:37:37;;;;;;;3.45;3.00;;;;;;;23.81;36.23;100652.69;4986364;28;20099;-86
2022/08/09 07:40:14;;;;;;;8.48;3.47;;;;;;;23.83;35.84;100647.03;5037298;28;20054;-85
2022/08/09 07:42:51;;;;;;;3.50;3.20;;;;;;;23.83;36.14;100642.44;4989316;28;20100;-85
2022/08/09 07:45:24;;;;;;;6.50;3.22;;;;;;;23.91;36.10;100636.00;5004980;28;20616;-86
2022/08/09 07:48:04;;;;;;;6.93;2.90;;;;;;;24.04;35.97;100646.06;5011435;28;20092;-86
2022/08/09 07:50:31;;;;;;;4.38;2.72;;;;;;;24.09;35.48;100637.31;4974073;28;20049;-86
2022/08/09 07:53:01;;;;;;;4.05;3.17;;;;;;;24.11;35.78;100643.38;4983924;28;20076;-85
2022/08/09 07:55:31;;;;;;;4.30;3.42;;;;;;;24.17;35.92;100640.69;5002734;28;20033;-85
2022/08/09 07:58:18;;;;;;;6.95;3.42;;;;;;;24.20;35.88;100643.00;5008751;28;20056;-85
2022/08/09 08:00:47;;;;;;;6.85;3.78;;;;;;;24.20;35.64;100647.59;5021677;28;20465;-86
2022/08/09 08:03:32;;;;;;;3.50;3.10;;;;;;;24.16;35.93;100646.31;4976658;28;20490;-85
2022/08/09 08:06:03;;;;;;;3.72;2.70;;;;;;;24.23;35.60;100648.00;5021174;28;20449;-85
2022/08/09 08:08:31;;;;;;;3.50;2.83;;;;;;;24.32;35.66;100647.81;5017322;28;20080;-85
2022/08/09 08:11:18;;;;;;;6.05;3.20;;;;;;;24.35;35.84;100655.53;5002937;28;20041;-85
2022/08/09 08:14:05;;;;;;;4.03;3.63;;;;;;;24.35;35.97;100656.38;5036581;28;20045;-84
2022/08/09 08:16:32;;;;;;;6.00;2.88;;;;;;;24.38;35.56;100658.69;5040057;28;20046;-84
2022/08/09 08:19:00;;;;;;;4.20;3.17;;;;;;;24.39;35.55;100654.09;5037294;28;20577;-85
2022/08/09 08:21:29;;;;;;;4.38;3.10;;;;;;;24.44;35.52;100660.56;5009255;28;20057;-84
2022/08/09 08:23:56;;;;;;;3.50;3.03;;;;;;;24.51;35.60;100652.47;5043508;28;20393;-84
2022/08/09 08:26:27;;;;;;;5.15;3.60;;;;;;;24.51;35.63;100666.03;5008655;28;20467;-84
2022/08/09 08:29:16;;;;;;;7.05;3.35;;;;;;;24.50;35.90;100650.81;4976205;28;20097;-84
2022/08/09 08:31:53;;;;;;;7.05;3.35;;;;;;;24.48;35.77;100656.44;5008195;28;20049;-84
2022/08/09 08:34:32;;;;;;;4.20;2.97;;;;;;;24.57;36.08;100664.38;5008656;28;20111;-85
2022/08/09 08:37:03;;;;;;;4.57;3.30;;;;;;;24.61;35.69;100657.50;5015181;28;20056;-84
2022/08/09 08:39:31;;;;;;;6.68;3.35;;;;;;;24.77;35.79;100650.81;5012896;28;20041;-84
2022/08/09 08:42:12;;;;;;;9.02;3.45;;;;;;;24.70;35.71;100642.66;4978354;28;20131;-84
2022/08/09 08:44:40;;;;;;;6.88;3.10;;;;;;;24.73;35.85;100647.69;5025266;28;20045;-84
2022/08/09 08:47:08;;;;;;;3.90;3.00;;;;;;;24.79;35.74;100646.00;5027909;28;20045;-84
2022/08/09 08:49:39;;;;;;;3.67;2.70;;;;;;;24.83;35.78;100648.09;5038909;28;20677;-85
2022/08/09 08:52:26;;;;;;;6.00;3.22;;;;;;;24.87;36.04;100643.91;5005003;28;20124;-85
2022/08/09 08:55:14;;;;;;;4.72;3.05;;;;;;;24.93;35.74;100653.09;4953900;28;20041;-85
2022/08/09 08:57:50;;;;;;;5.30;3.22;;;;;;;24.96;35.48;100643.69;4986621;28;20505;-86
2022/08/09 09:00:26;;;;;;;6.25;2.90;;;;;;;25.00;36.11;100653.09;5013043;28;20108;-85
2022/08/09 09:03:02;;;;;;;4.43;2.80;;;;;;;25.07;35.98;100643.06;5023095;28;20053;-84
2022/08/09 09:05:44;;;;;;;3.13;2.83;;;;;;;25.13;35.87;100653.06;4956779;28;20119;-85
2022/08/09 09:08:35;;;;;;;4.97;2.80;;;;;;;25.16;35.61;100651.81;4995700;28;20124;-88
2022/08/09 09:11:07;;;;;;;3.92;2.90;;;;;;;25.22;35.82;100643.69;5008533;28;20049;-84
2022/08/09 09:14:22;;;;;;;2.90;2.58;;;;;;;25.17;35.38;100654.34;5054367;28;20476;-83
2022/08/09 09:16:50;;;;;;;4.43;2.95;;;;;;;25.28;35.53;100650.97;4934813;28;20046;-82
2022/08/09 09:19:18;;;;;;;4.93;2.72;;;;;;;25.32;35.19;100643.25;5012523;28;20045;-83
2022/08/09 09:22:09;;;;;;;2.80;2.60;;;;;;;25.36;35.29;100643.66;5019795;28;20511;-82
2022/08/09 09:24:58;;;;;;;3.47;2.97;;;;;;;25.33;35.14;100647.63;5033734;28;20099;-83
2022/08/09 09:27:46;;;;;;;4.35;2.80;;;;;;;25.41;34.47;100643.84;4931878;28;20056;-83
2022/08/09 09:35:05;;;;;;;5.63;3.40;;;;;;;25.41;33.83;100646.56;4981137;28;20164;-83
2022/08/09 09:37:38;;;;;;;4.55;2.88;;;;;;;25.41;33.71;100636.50;5035726;28;20513;-83
2022/08/09 09:40:07;;;;;;;3.75;2.70;;;;;;;25.46;34.08;100642.16;4991969;28;20539;-83
2022/08/09 09:42:35;;;;;;;2.70;2.50;;;;;;;25.51;34.21;100641.50;4987330;28;20144;-83
2022/08/09 09:45:06;;;;;;;3.67;2.97;;;;;;;25.54;33.71;100641.94;4982580;28;20129;-83
2022/08/09 09:47:34;;;;;;;2.92;2.30;;;;;;;25.58;34.11;100653.19;5021831;28;20052;-83
2022/08/09 09:50:13;;;;;;;4.70;2.63;;;;;;;25.62;33.60;100637.28;5007021;28;20051;-83
2022/08/09 09:52:51;;;;;;;4.43;2.83;;;;;;;25.60;33.51;100644.84;4975519;28;20072;-83
2022/08/09 09:55:22;;;;;;;3.47;2.70;;;;;;;25.63;33.54;100639.78;5000746;28;20049;-83
2022/08/09 09:58:03;;;;;;;3.95;2.78;;;;;;;25.67;33.98;100627.44;4961585;28;20042;-82
2022/08/09 10:00:55;;;;;;;4.10;2.95;;;;;;;25.72;33.94;100622.19;4989824;28;20054;-83
2022/08/09 10:03:43;;;;;;;5.13;2.90;;;;;;;25.70;33.59;100628.91;5014687;28;20053;-83
2022/08/09 10:06:40;;;;;;;4.40;3.00;;;;;;;25.70;33.40;100629.72;4984209;28;20046;-84
2022/08/09 10:09:11;;;;;;;3.35;3.05;;;;;;;25.74;33.29;100619.25;4987604;28;20053;-84
2022/08/09 10:12:00;;;;;;;6.18;2.83;;;;;;;25.67;33.09;100605.69;4975929;28;20049;-84
2022/08/09 10:14:47;;;;;;;4.20;2.63;;;;;;;25.76;33.75;100609.81;4980045;28;20046;-84
2022/08/09 10:17:18;;;;;;;3.97;2.90;;;;;;;25.79;33.43;100608.53;5030223;28;20091;-83
2022/08/09 10:20:18;;;;;;;5.05;3.05;;;;;;;25.77;33.74;100605.19;4986660;28;20103;-83
2022/08/09 10:22:59;;;;;;;5.18;3.13;;;;;;;25.88;33.40;100609.16;4989253;28;20056;-83
2022/08/09 10:25:29;;;;;;;3.92;3.03;;;;;;;25.90;32.56;100610.63;5004238;28;20401;-83
2022/08/09 10:28:15;;;;;;;3.75;2.95;;;;;;;25.85;32.24;100609.59;4974450;28;20057;-83
2022/08/09 10:30:44;;;;;;;6.80;3.15;;;;;;;25.85;32.23;100612.31;5007351;28;20515;-83
2022/08/09 10:33:31;;;;;;;5.70;2.70;;;;;;;25.85;32.17;100591.41;4995865;28;20065;-83
2022/08/09 10:36:18;;;;;;;5.90;2.72;;;;;;;25.97;31.97;100616.00;5014594;28;20049;-84
2022/08/09 10:38:46;;;;;;;3.45;2.97;;;;;;;25.97;32.24;100600.50;5004136;28;20057;-83
2022/08/09 10:41:25;;;;;;;4.32;2.80;;;;;;;26.02;32.17;100596.31;5013495;28;20056;-83
2022/08/09 10:43:54;;;;;;;3.92;2.47;;;;;;;26.03;32.10;100582.50;5005644;28;20640;-83
2022/08/09 10:46:46;;;;;;;4.55;3.00;;;;;;;25.97;31.84;100586.06;4984439;28;20442;-82
2022/08/09 10:49:39;;;;;;;3.75;2.50;;;;;;;26.02;32.54;100594.41;4987043;28;20358;-82
2022/08/09 10:52:34;;;;;;;4.07;2.50;;;;;;;26.05;32.55;100591.25;4993653;28;20052;-83
2022/08/09 10:55:22;;;;;;;3.67;2.60;;;;;;;26.08;32.47;100582.66;5004328;28;20041;-83
2022/08/09 10:57:50;;;;;;;3.20;2.40;;;;;;;26.20;32.03;100580.06;4968579;28;20103;-82
2022/08/09 11:00:30;;;;;;;2.50;2.17;;;;;;;26.17;32.23;100580.50;5015826;28;20059;-83
2022/08/09 11:02:57;;;;;;;4.97;2.85;;;;;;;26.26;31.79;100586.53;4998200;28;20557;-83
2022/08/09 11:06:20;;;;;;;3.05;2.70;;;;;;;26.22;31.81;100590.75;4997967;28;20492;-83
2022/08/09 11:08:49;;;;;;;4.88;2.50;;;;;;;26.29;31.93;100584.19;4955604;28;20449;-84
2022/08/09 11:11:19;;;;;;;2.88;2.55;;;;;;;26.32;31.12;100577.47;5020121;28;20064;-86
2022/08/09 11:14:29;;;;;;;4.20;2.55;;;;;;;26.28;31.88;100571.66;5019924;28;20516;-85
2022/08/09 11:16:57;;;;;;;3.42;3.13;;;;;;;26.38;31.46;100571.13;4934817;28;20457;-85
2022/08/09 11:20:07;;;;;;;3.70;2.42;;;;;;;26.34;31.55;100570.75;5007414;28;20052;-84
2022/08/09 11:22:47;;;;;;;2.97;2.53;;;;;;;26.47;30.44;100588.03;4932884;28;20119;-84
2022/08/09 11:25:30;;;;;;;3.03;2.45;;;;;;;26.48;29.72;100589.69;4956640;28;20530;-84
2022/08/09 11:28:32;;;;;;;3.17;2.03;;;;;;;26.42;30.00;100573.19;4986636;28;20045;-83
2022/08/09 11:31:39;;;;;;;3.08;2.17;;;;;;;26.39;29.67;100578.25;5019000;28;20049;-83
2022/08/09 11:34:40;;;;;;;4.15;2.40;;;;;;;26.42;28.69;100573.19;4938191;28;20050;-84
2022/08/09 11:37:10;;;;;;;5.88;2.58;;;;;;;26.52;28.67;100591.78;5023418;28;20144;-85
2022/08/09 11:40:01;;;;;;;9.02;2.35;;;;;;;26.48;28.32;100576.06;5024349;28;20041;-83
2022/08/09 11:42:42;;;;;;;3.40;2.20;;;;;;;26.49;28.56;100581.31;5009774;28;20061;-83
2022/08/09 11:50:01;;;;;;;3.88;2.28;;;;;;;26.59;28.39;100570.78;5008748;28;20044;-84
2022/08/09 11:53:00;;;;;;;3.63;2.15;;;;;;;26.61;27.61;100557.78;4980693;28;20056;-83
2022/08/09 11:55:47;;;;;;;4.35;2.22;;;;;;;26.77;27.62;100561.81;4947980;28;20473;-84
2022/08/09 12:02:59;;;;;;;3.78;2.20;;;;;;;26.89;26.72;100563.78;4993946;28;20505;-84
2022/08/09 12:05:48;;;;;;;4.18;2.08;;;;;;;26.85;27.10;100556.06;4972445;28;20045;-83
2022/08/09 12:08:16;;;;;;;5.25;2.38;;;;;;;26.91;26.55;100570.66;4994037;28;20069;-82
2022/08/09 12:15:28;;;;;;;3.22;2.17;;;;;;;26.90;26.90;100557.28;5000610;28;20163;-84
2022/08/09 12:18:17;;;;;;;11.10;2.38;;;;;;;26.96;26.25;100554.47;5013744;28;20505;-84
2022/08/09 12:20:58;;;;;;;3.22;2.20;;;;;;;26.99;26.83;100551.28;4950603;28;20054;-84
2022/08/09 12:23:29;;;;;;;2.47;2.27;;;;;;;27.00;26.03;100542.06;5038203;28;20049;-84
2022/08/09 12:26:17;;;;;;;2.22;2.00;;;;;;;27.00;26.92;100533.91;5018528;28;20047;-84
2022/08/09 12:28:53;;;;;;;7.82;2.38;;;;;;;26.98;26.58;100549.63;4987257;28;20441;-83
2022/08/09 12:31:38;;;;;;;3.13;2.13;;;;;;;27.06;26.91;100552.06;4989240;28;20477;-84
2022/08/09 12:34:38;;;;;;;5.10;2.08;;;;;;;27.09;26.43;100552.66;5018530;28;20076;-83
2022/08/09 12:37:07;;;;;;;2.85;1.98;;;;;;;27.13;26.43;100556.63;4968578;28;20042;-83
2022/08/09 12:40:05;;;;;;;3.90;2.15;;;;;;;27.08;25.92;100551.84;4979413;28;20455;-84
2022/08/09 12:42:31;;;;;;;3.47;2.30;;;;;;;27.13;26.28;100538.34;4981070;28;20049;-83
2022/08/09 12:44:59;;;;;;;2.15;1.90;;;;;;;27.15;26.57;100535.41;5010149;28;20120;-82
2022/08/09 12:47:28;;;;;;;3.95;2.22;;;;;;;27.15;26.10;100524.50;4985741;28;20049;-82